Station History

Weather Underground - logo

Station Historical Data
Daily Summary for February 7, 2018 Units:  English    Metric   Both
« Previous Day
Next Day »
Daily Weekly Monthly Yearly Custom
  High: Low: Average:
Temperature: TemperatureF °F 43.7 °F 58.4 °F
Dew Point: DewpointF °F 41.8 °F 47.5 °F
Humidity: Humidity % 30 % 71 %
Wind Speed: WindSpeedMPH mph 0.0 mph 0.5 mph
Wind Gust: WindSpeedGustMPH mph - -
Wind:- - West
Pressure: PressureIn in 30.17 in -
Precipitation: 0.00 in    
Historical Graphs
 
 
Tabular Data for February 7, 2018
Time Temperature Dew Point Pressure Wind Wind Speed Wind Gust Humidity Rainfall Rate (Hourly)
TemperatureF °F DewpointF °F PressureIn in Calm     Humidity % HourlyPrecipIn in
00:02 50.0 °F 46.9 °F 30.18 in Calm     89 % 0.00 in
00:07 49.8 °F 46.7 °F 30.18 in Calm     89 % 0.00 in
00:12 49.6 °F 46.8 °F 30.18 in Calm     90 % 0.00 in
00:17 49.7 °F 46.9 °F 30.18 in Calm     90 % 0.00 in
00:22 49.5 °F 46.7 °F 30.18 in Calm     90 % 0.00 in
00:27 49.2 °F 46.1 °F 30.19 in Calm     89 % 0.00 in
00:32 48.8 °F 45.7 °F 30.19 in Calm     89 % 0.00 in
00:37 48.5 °F 45.4 °F 30.19 in Calm     89 % 0.00 in
00:42 48.5 °F 45.7 °F 30.19 in Calm     90 % 0.00 in
00:47 48.4 °F 45.6 °F 30.19 in Calm     90 % 0.00 in
00:52 48.4 °F 45.6 °F 30.19 in Calm     90 % 0.00 in
00:57 48.3 °F 45.5 °F 30.19 in Calm     90 % 0.00 in
01:02 48.2 °F 45.4 °F 30.19 in Calm     90 % 0.00 in
01:07 48.1 °F 45.6 °F 30.19 in Calm     91 % 0.00 in
01:12 48.0 °F 45.5 °F 30.19 in Calm     91 % 0.00 in
01:17 47.9 °F 45.4 °F 30.19 in Calm     91 % 0.00 in
01:22 47.8 °F 45.3 °F 30.20 in Calm     91 % 0.00 in
01:27 47.7 °F 45.2 °F 30.19 in Calm     91 % 0.00 in
01:32 47.7 °F 45.5 °F 30.20 in Calm     92 % 0.00 in
01:37 47.6 °F 45.4 °F 30.20 in Calm     92 % 0.00 in
01:42 47.9 °F 45.7 °F 30.20 in Calm     92 % 0.00 in
01:47 48.4 °F 46.5 °F 30.19 in Calm     93 % 0.00 in
01:52 48.7 °F 46.8 °F 30.19 in Calm     93 % 0.00 in
01:57 48.8 °F 46.6 °F 30.19 in Calm     92 % 0.00 in
02:02 48.3 °F 45.5 °F 30.19 in Calm     90 % 0.00 in
02:07 47.8 °F 45.0 °F 30.20 in Calm     90 % 0.00 in
02:12 47.6 °F 45.1 °F 30.20 in Calm     91 % 0.00 in
02:17 47.5 °F 45.0 °F 30.20 in Calm     91 % 0.00 in
02:22 47.5 °F 45.3 °F 30.20 in Calm     92 % 0.00 in
02:27 47.6 °F 45.4 °F 30.20 in Calm     92 % 0.00 in
02:32 47.7 °F 45.5 °F 30.20 in Calm     92 % 0.00 in
02:37 47.3 °F 44.8 °F 30.20 in Calm     91 % 0.00 in
02:42 46.9 °F 44.4 °F 30.20 in Calm     91 % 0.00 in
02:47 46.6 °F 44.1 °F 30.20 in Calm     91 % 0.00 in
02:52 46.4 °F 43.9 °F 30.20 in Calm     91 % 0.00 in
02:57 46.0 °F 43.5 °F 30.20 in Calm     91 % 0.00 in
03:02 45.8 °F 43.3 °F 30.20 in Calm     91 % 0.00 in
03:07 45.6 °F 43.1 °F 30.20 in Calm     91 % 0.00 in
03:12 45.5 °F 43.3 °F 30.20 in Calm     92 % 0.00 in
03:17 45.6 °F 43.4 °F 30.20 in Calm     92 % 0.00 in
03:22 45.6 °F 43.7 °F 30.20 in Calm     93 % 0.00 in
03:27 45.6 °F 43.4 °F 30.20 in Calm     92 % 0.00 in
03:32 45.4 °F 43.2 °F 30.20 in Calm     92 % 0.00 in
03:37 45.0 °F 42.8 °F 30.20 in Calm     92 % 0.00 in
03:42 44.8 °F 42.6 °F 30.20 in Calm     92 % 0.00 in
03:47 44.8 °F 42.9 °F 30.20 in Calm     93 % 0.00 in
03:53 45.0 °F 43.1 °F 30.20 in Calm     93 % 0.00 in
03:58 45.0 °F 43.1 °F 30.20 in Calm     93 % 0.00 in
04:03 45.0 °F 43.1 °F 30.20 in Calm     93 % 0.00 in
04:08 45.0 °F 43.1 °F 30.20 in Calm     93 % 0.00 in
04:13 44.9 °F 43.0 °F 30.20 in Calm     93 % 0.00 in
04:18 44.7 °F 42.8 °F 30.20 in Calm     93 % 0.00 in
04:23 44.6 °F 42.7 °F 30.20 in Calm     93 % 0.00 in
04:28 44.6 °F 42.7 °F 30.20 in Calm     93 % 0.00 in
04:33 44.6 °F 42.7 °F 30.20 in Calm     93 % 0.00 in
04:38 44.6 °F 42.7 °F 30.21 in Calm     93 % 0.00 in
04:43 44.7 °F 43.1 °F 30.21 in Calm     94 % 0.00 in
04:48 44.6 °F 42.7 °F 30.21 in Calm     93 % 0.00 in
04:53 44.6 °F 42.7 °F 30.21 in Calm     93 % 0.00 in
04:58 44.5 °F 42.6 °F 30.21 in Calm     93 % 0.00 in
05:03 44.5 °F 42.6 °F 30.21 in Calm     93 % 0.00 in
05:08 44.5 °F 42.6 °F 30.21 in Calm     93 % 0.00 in
05:13 44.3 °F 42.4 °F 30.21 in Calm     93 % 0.00 in
05:18 44.1 °F 42.2 °F 30.22 in Calm     93 % 0.00 in
05:23 44.1 °F 42.2 °F 30.22 in Calm     93 % 0.00 in
05:28 44.0 °F 42.1 °F 30.22 in Calm     93 % 0.00 in
05:33 43.8 °F 41.9 °F 30.22 in Calm     93 % 0.00 in
05:38 43.7 °F 41.8 °F 30.23 in Calm     93 % 0.00 in
05:43 43.9 °F 42.3 °F 30.23 in Calm     94 % 0.00 in
05:48 44.4 °F 42.8 °F 30.23 in NNE 1.2 mph   94 % 0.00 in
05:53 44.7 °F 43.1 °F 30.23 in Calm     94 % 0.00 in
05:58 44.8 °F 43.2 °F 30.23 in Calm     94 % 0.00 in
06:03 44.9 °F 43.3 °F 30.23 in Calm     94 % 0.00 in
06:08 44.8 °F 43.2 °F 30.23 in Calm     94 % 0.00 in
06:13 45.0 °F 43.7 °F 30.23 in Calm     95 % 0.00 in
06:18 44.9 °F 43.3 °F 30.23 in Calm     94 % 0.00 in
06:23 45.1 °F 43.8 °F 30.24 in Calm     95 % 0.00 in
06:28 45.4 °F 44.1 °F 30.24 in Calm     95 % 0.00 in
06:33 45.6 °F 44.3 °F 30.24 in Calm     95 % 0.00 in
06:38 45.7 °F 44.4 °F 30.24 in Calm     95 % 0.00 in
06:43 45.8 °F 44.4 °F 30.24 in Calm     95 % 0.00 in
06:48 45.6 °F 44.0 °F 30.24 in Calm     94 % 0.00 in
06:53 45.5 °F 43.9 °F 30.24 in Calm     94 % 0.00 in
06:58 45.4 °F 43.8 °F 30.25 in Calm     94 % 0.00 in
07:03 45.3 °F 43.7 °F 30.25 in Calm     94 % 0.00 in
07:08 45.3 °F 44.0 °F 30.24 in Calm     95 % 0.00 in
07:13 45.4 °F 44.1 °F 30.25 in Calm     95 % 0.00 in
07:18 45.3 °F 44.0 °F 30.24 in Calm     95 % 0.00 in
07:23 45.4 °F 44.1 °F 30.24 in Calm     95 % 0.00 in
07:28 45.5 °F 44.2 °F 30.25 in Calm     95 % 0.00 in
07:33 45.5 °F 44.2 °F 30.25 in Calm     95 % 0.00 in
07:38 45.4 °F 44.1 °F 30.25 in Calm     95 % 0.00 in
07:43 45.5 °F 44.2 °F 30.25 in Calm     95 % 0.00 in
07:48 45.9 °F 44.5 °F 30.25 in Calm     95 % 0.00 in
07:53 46.7 °F 45.3 °F 30.25 in Calm     95 % 0.00 in
07:58 47.3 °F 45.9 °F 30.25 in Calm     95 % 0.00 in
08:03 47.7 °F 46.3 °F 30.25 in Calm     95 % 0.00 in
08:08 48.5 °F 46.9 °F 30.25 in Calm     94 % 0.00 in
08:13 49.6 °F 47.9 °F 30.25 in Calm     94 % 0.00 in
08:18 51.4 °F 49.4 °F 30.25 in Calm     93 % 0.00 in
08:23 53.1 °F 50.2 °F 30.25 in Calm     90 % 0.00 in
08:28 54.3 °F 50.5 °F 30.26 in Calm     87 % 0.00 in
08:33 55.3 °F 50.9 °F 30.26 in Calm     85 % 0.00 in
08:38 56.0 °F 51.6 °F 30.26 in Calm     85 % 0.00 in
08:43 57.0 °F 51.6 °F 30.26 in Calm     82 % 0.00 in
08:48 57.5 °F 51.7 °F 30.26 in Calm     81 % 0.00 in
08:53 58.2 °F 52.1 °F 30.26 in Calm     80 % 0.00 in
08:58 58.7 °F 51.9 °F 30.26 in Calm     78 % 0.00 in
09:03 59.8 °F 52.2 °F 30.26 in Calm     76 % 0.00 in
09:08 60.9 °F 52.6 °F 30.27 in SE 1.2 mph   74 % 0.00 in
09:13 61.4 °F 52.7 °F 30.26 in Calm     73 % 0.00 in
09:18 61.6 °F 52.9 °F 30.27 in Calm     73 % 0.00 in
09:23 62.4 °F 53.3 °F 30.27 in ESE 1.2 mph   72 % 0.00 in
09:28 62.7 °F 52.4 °F 30.26 in Calm     69 % 0.00 in
09:33 63.0 °F 53.1 °F 30.26 in SE 1.2 mph   70 % 0.00 in
09:38 63.4 °F 52.7 °F 30.26 in ESE 1.2 mph   68 % 0.00 in
09:43 64.0 °F 53.2 °F 30.26 in Calm     68 % 0.00 in
09:48 64.5 °F 52.9 °F 30.26 in Calm     66 % 0.00 in
09:53 64.8 °F 52.8 °F 30.26 in Calm     65 % 0.00 in
09:58 65.0 °F 53.4 °F 30.26 in Calm     66 % 0.00 in
09:59 65.1 °F 53.5 °F 30.26 in Calm     66 % 0.00 in
10:04 65.7 °F 53.6 °F 30.26 in Calm     65 % 0.00 in
10:09 66.1 °F 53.1 °F 30.26 in Calm     63 % 0.00 in
10:14 66.0 °F 53.5 °F 30.26 in Calm     64 % 0.00 in
10:19 66.3 °F 53.3 °F 30.26 in Calm     63 % 0.00 in
10:24 66.9 °F 53.5 °F 30.26 in Calm     62 % 0.00 in
10:29 66.9 °F 53.0 °F 30.26 in Calm     61 % 0.00 in
10:34 67.3 °F 53.8 °F 30.26 in Calm     62 % 0.00 in
10:39 67.8 °F 53.9 °F 30.26 in NW 1.0 mph   61 % 0.00 in
10:44 67.7 °F 53.3 °F 30.26 in Calm     60 % 0.00 in
10:49 67.8 °F 53.9 °F 30.26 in East 1.2 mph 1.2 mph 61 % 0.00 in
10:54 67.9 °F 53.0 °F 30.26 in WNW 1.2 mph 1.2 mph 59 % 0.00 in
10:59 68.1 °F 52.8 °F 30.26 in ENE 1.2 mph   58 % 0.00 in
11:04 68.7 °F 53.8 °F 30.26 in Calm     59 % 0.00 in
11:09 69.3 °F 53.4 °F 30.26 in Calm     57 % 0.00 in
11:14 69.5 °F 52.6 °F 30.25 in NW 1.2 mph 1.2 mph 55 % 0.00 in
11:19 70.0 °F 52.6 °F 30.25 in East 1.2 mph 1.2 mph 54 % 0.00 in
11:24 70.4 °F 53.5 °F 30.25 in Calm     55 % 0.00 in
11:29 70.5 °F 51.5 °F 30.25 in NW 1.2 mph   51 % 0.00 in
11:34 70.4 °F 52.4 °F 30.25 in Calm     53 % 0.00 in
11:39 70.8 °F 53.8 °F 30.25 in Calm     55 % 0.00 in
11:44 71.2 °F 54.2 °F 30.25 in SE 1.2 mph   55 % 0.00 in
11:49 71.6 °F 53.0 °F 30.25 in NW 1.2 mph 1.2 mph 52 % 0.00 in
11:54 71.4 °F 53.4 °F 30.24 in Calm     53 % 0.00 in
11:59 72.0 °F 52.3 °F 30.24 in NNW 1.2 mph 1.2 mph 50 % 0.00 in
12:04 72.1 °F 52.4 °F 30.24 in NW 1.2 mph 1.2 mph 50 % 0.00 in
12:09 72.0 °F 52.9 °F 30.24 in WNW 2.3 mph 2.3 mph 51 % 0.00 in
12:14 72.0 °F 52.9 °F 30.23 in WNW 2.0 mph 2.0 mph 51 % 0.00 in
12:19 72.1 °F 53.0 °F 30.23 in WNW 1.2 mph 1.2 mph 51 % 0.00 in
12:24 72.2 °F 52.5 °F 30.23 in NNW 1.2 mph 1.2 mph 50 % 0.00 in
12:29 72.8 °F 52.5 °F 30.23 in Calm     49 % 0.00 in
12:34 73.2 °F 52.3 °F 30.22 in NNE 2.3 mph 2.3 mph 48 % 0.00 in
12:39 73.2 °F 52.3 °F 30.22 in NW 2.3 mph 2.3 mph 48 % 0.00 in
12:45 73.0 °F 52.7 °F 30.22 in Calm     49 % 0.00 in
12:50 73.3 °F 51.8 °F 30.22 in Calm     47 % 0.00 in
12:55 73.8 °F 52.3 °F 30.21 in North 3.5 mph 3.5 mph 47 % 0.00 in
13:00 74.0 °F 53.1 °F 30.21 in WNW 1.2 mph 1.2 mph 48 % 0.00 in
13:05 74.2 °F 52.7 °F 30.21 in NW 1.2 mph 1.2 mph 47 % 0.00 in
13:10 74.6 °F 52.4 °F 30.21 in NW 1.2 mph   46 % 0.00 in
13:15 74.8 °F 51.4 °F 30.20 in NW 3.5 mph 3.5 mph 44 % 0.00 in
13:20 74.6 °F 51.9 °F 30.20 in NW 1.2 mph 1.2 mph 45 % 0.00 in
13:25 74.8 °F 50.8 °F 30.20 in NW 1.2 mph   43 % 0.00 in
13:30 74.7 °F 51.3 °F 30.20 in Calm     44 % 0.00 in
13:35 75.3 °F 52.5 °F 30.20 in Calm     45 % 0.00 in
13:40 75.6 °F 51.5 °F 30.20 in NNW 1.2 mph 1.2 mph 43 % 0.00 in
13:45 75.9 °F 51.8 °F 30.19 in NW 3.0 mph 3.0 mph 43 % 0.00 in
13:50 75.9 °F 51.2 °F 30.19 in WSW 3.5 mph 3.5 mph 42 % 0.00 in
13:55 75.7 °F 51.6 °F 30.19 in WNW 2.3 mph 2.3 mph 43 % 0.00 in
14:00 75.6 °F 50.9 °F 30.19 in Calm     42 % 0.00 in
14:05 75.7 °F 51.0 °F 30.19 in WNW 3.5 mph 3.5 mph 42 % 0.00 in
14:10 75.9 °F 51.2 °F 30.19 in Calm     42 % 0.00 in
14:15 76.3 °F 52.2 °F 30.19 in NW 1.2 mph 1.2 mph 43 % 0.00 in
14:20 76.3 °F 50.9 °F 30.18 in NW 2.3 mph 2.3 mph 41 % 0.00 in
14:25 76.4 °F 51.0 °F 30.18 in NW 2.3 mph 2.3 mph 41 % 0.00 in
14:30 76.4 °F 52.2 °F 30.18 in NNW 2.3 mph 2.3 mph 43 % 0.00 in
14:35 76.2 °F 50.8 °F 30.18 in NNE 2.0 mph 2.0 mph 41 % 0.00 in
14:40 76.2 °F 50.8 °F 30.18 in Calm     41 % 0.00 in
14:45 76.3 °F 48.1 °F 30.18 in WNW 2.3 mph 2.3 mph 37 % 0.00 in
14:50 76.3 °F 48.1 °F 30.17 in NW 3.5 mph 3.5 mph 37 % 0.00 in
14:55 76.5 °F 48.3 °F 30.18 in NW 4.0 mph 4.0 mph 37 % 0.00 in
15:00 76.4 °F 47.5 °F 30.17 in NW 3.5 mph 3.5 mph 36 % 0.00 in
15:05 76.3 °F 47.4 °F 30.17 in NNW 3.5 mph 3.5 mph 36 % 0.00 in
15:10 76.3 °F 45.9 °F 30.17 in NW 4.0 mph 4.0 mph 34 % 0.00 in
15:15 76.3 °F 45.1 °F 30.17 in WNW 4.6 mph 4.6 mph 33 % 0.00 in
15:20 76.2 °F 45.8 °F 30.17 in NW 3.5 mph 3.5 mph 34 % 0.00 in
15:25 76.2 °F 44.2 °F 30.18 in NW 3.5 mph 3.5 mph 32 % 0.00 in
15:30 76.2 °F 45.8 °F 30.18 in WNW 3.5 mph 3.5 mph 34 % 0.00 in
15:35 76.1 °F 44.9 °F 30.18 in NW 3.5 mph 3.5 mph 33 % 0.00 in
15:40 76.1 °F 44.9 °F 30.18 in NW 3.5 mph 3.5 mph 33 % 0.00 in
15:45 76.2 °F 44.2 °F 30.18 in NW 4.6 mph 4.6 mph 32 % 0.00 in
15:50 76.1 °F 44.1 °F 30.18 in NW 2.3 mph 2.3 mph 32 % 0.00 in
15:55 75.9 °F 43.1 °F 30.18 in North 3.5 mph 3.5 mph 31 % 0.00 in
16:00 75.9 °F 42.2 °F 30.18 in NW 1.2 mph 1.2 mph 30 % 0.00 in
16:05 75.8 °F 43.8 °F 30.18 in NNW 2.0 mph 2.0 mph 32 % 0.00 in
16:10 75.6 °F 43.7 °F 30.18 in NW 3.0 mph 3.0 mph 32 % 0.00 in
16:15 75.4 °F 44.3 °F 30.18 in WNW 3.5 mph 3.5 mph 33 % 0.00 in
16:20 75.3 °F 44.2 °F 30.18 in NW 2.3 mph 2.4 mph 33 % 0.00 in
16:25 75.3 °F 45.0 °F 30.18 in NW 4.6 mph 4.6 mph 34 % 0.00 in
16:30 75.0 °F 45.5 °F 30.18 in North 2.3 mph 2.3 mph 35 % 0.00 in
16:35 74.9 °F 46.9 °F 30.18 in NW 1.2 mph 1.2 mph 37 % 0.00 in
16:40 74.6 °F 47.3 °F 30.18 in NW 1.2 mph 1.2 mph 38 % 0.00 in
16:45 74.4 °F 47.8 °F 30.18 in WNW 2.3 mph 2.3 mph 39 % 0.00 in
16:50 74.1 °F 48.2 °F 30.18 in WNW 2.3 mph 2.3 mph 40 % 0.00 in
16:55 73.8 °F 48.6 °F 30.18 in Calm     41 % 0.00 in
17:00 73.6 °F 48.4 °F 30.18 in Calm     41 % 0.00 in
17:05 73.3 °F 48.2 °F 30.18 in Calm     41 % 0.00 in
17:10 73.0 °F 47.9 °F 30.18 in Calm     41 % 0.00 in
17:15 72.5 °F 48.7 °F 30.18 in Calm     43 % 0.00 in
17:20 71.8 °F 48.7 °F 30.18 in Calm     44 % 0.00 in
17:25 71.1 °F 49.3 °F 30.18 in Calm     46 % 0.00 in
17:30 70.1 °F 48.9 °F 30.18 in Calm     47 % 0.00 in
17:35 69.3 °F 49.3 °F 30.18 in Calm     49 % 0.00 in
17:40 68.5 °F 49.7 °F 30.18 in Calm     51 % 0.00 in
17:45 67.7 °F 49.4 °F 30.18 in Calm     52 % 0.00 in
17:50 66.9 °F 49.2 °F 30.18 in Calm     53 % 0.00 in
17:55 66.1 °F 50.4 °F 30.19 in Calm     57 % 0.00 in
18:00 65.2 °F 49.6 °F 30.19 in Calm     57 % 0.00 in
18:05 64.9 °F 49.3 °F 30.19 in Calm     57 % 0.00 in
18:10 64.8 °F 49.2 °F 30.19 in Calm     57 % 0.00 in
18:15 64.5 °F 49.4 °F 30.19 in Calm     58 % 0.00 in
18:20 64.1 °F 49.0 °F 30.19 in Calm     58 % 0.00 in
18:26 63.5 °F 48.9 °F 30.19 in Calm     59 % 0.00 in
18:31 63.0 °F 48.9 °F 30.19 in Calm     60 % 0.00 in
18:36 62.5 °F 49.3 °F 30.20 in Calm     62 % 0.00 in
18:41 62.3 °F 49.1 °F 30.20 in Calm     62 % 0.00 in
18:46 62.1 °F 48.9 °F 30.20 in Calm     62 % 0.00 in
18:51 62.0 °F 49.3 °F 30.19 in Calm     63 % 0.00 in
18:56 62.0 °F 49.3 °F 30.20 in Calm     63 % 0.00 in
19:01 61.7 °F 49.0 °F 30.20 in Calm     63 % 0.00 in
19:06 61.4 °F 49.1 °F 30.20 in Calm     64 % 0.00 in
19:11 61.3 °F 49.0 °F 30.20 in Calm     64 % 0.00 in
19:16 61.2 °F 49.3 °F 30.20 in Calm     65 % 0.00 in
19:21 60.9 °F 49.1 °F 30.20 in Calm     65 % 0.00 in
19:26 60.4 °F 49.0 °F 30.20 in Calm     66 % 0.00 in
19:31 59.9 °F 49.3 °F 30.20 in Calm     68 % 0.00 in
19:36 59.4 °F 49.2 °F 30.20 in Calm     69 % 0.00 in
19:41 58.9 °F 49.1 °F 30.20 in Calm     70 % 0.00 in
19:46 58.6 °F 49.2 °F 30.21 in Calm     71 % 0.00 in
19:51 58.3 °F 49.3 °F 30.21 in Calm     72 % 0.00 in
19:56 58.4 °F 49.0 °F 30.21 in Calm     71 % 0.00 in
20:01 58.5 °F 49.1 °F 30.21 in Calm     71 % 0.00 in
20:04 58.3 °F 48.9 °F 30.21 in Calm     71 % 0.00 in
20:09 57.7 °F 48.7 °F 30.21 in Calm     72 % 0.00 in
20:15 57.0 °F 48.4 °F 30.21 in Calm     73 % 0.00 in
20:19 56.6 °F 48.4 °F 30.21 in Calm     74 % 0.00 in
20:25 56.4 °F 48.6 °F 30.22 in Calm     75 % 0.00 in
20:30 56.2 °F 48.4 °F 30.22 in Calm     75 % 0.00 in
20:35 56.5 °F 48.7 °F 30.22 in Calm     75 % 0.00 in
20:40 57.2 °F 48.6 °F 30.22 in Calm     73 % 0.00 in
20:45 57.6 °F 48.6 °F 30.22 in Calm     72 % 0.00 in
20:50 58.2 °F 48.8 °F 30.22 in Calm     71 % 0.00 in
20:55 58.8 °F 48.6 °F 30.22 in Calm     69 % 0.00 in
21:00 59.0 °F 48.4 °F 30.22 in Calm     68 % 0.00 in
21:05 59.1 °F 48.5 °F 30.22 in Calm     68 % 0.00 in
21:10 58.8 °F 48.3 °F 30.22 in Calm     68 % 0.00 in
21:15 58.2 °F 48.1 °F 30.22 in Calm     69 % 0.00 in
21:20 57.3 °F 48.0 °F 30.22 in West 1.2 mph   71 % 0.00 in
21:25 56.6 °F 47.7 °F 30.22 in Calm     72 % 0.00 in
21:30 55.8 °F 47.6 °F 30.22 in Calm     74 % 0.00 in
21:35 54.8 °F 47.4 °F 30.22 in Calm     76 % 0.00 in
21:40 53.8 °F 47.1 °F 30.22 in Calm     78 % 0.00 in
21:45 53.2 °F 46.9 °F 30.22 in Calm     79 % 0.00 in
21:50 52.6 °F 46.6 °F 30.23 in Calm     80 % 0.00 in
21:55 52.1 °F 46.4 °F 30.23 in Calm     81 % 0.00 in
22:00 51.8 °F 46.8 °F 30.23 in Calm     83 % 0.00 in
22:05 51.7 °F 46.7 °F 30.23 in Calm     83 % 0.00 in
22:10 51.6 °F 46.6 °F 30.23 in Calm     83 % 0.00 in
22:15 51.4 °F 46.7 °F 30.23 in Calm     84 % 0.00 in
22:20 51.3 °F 46.6 °F 30.23 in Calm     84 % 0.00 in
22:25 51.0 °F 46.3 °F 30.23 in SE 1.2 mph 1.2 mph 84 % 0.00 in
22:30 50.7 °F 46.4 °F 30.23 in Calm     85 % 0.00 in
22:35 50.4 °F 46.1 °F 30.23 in Calm     85 % 0.00 in
22:40 50.4 °F 46.4 °F 30.23 in Calm     86 % 0.00 in
22:45 50.3 °F 46.3 °F 30.23 in Calm     86 % 0.00 in
22:50 50.3 °F 46.3 °F 30.23 in Calm     86 % 0.00 in
22:55 50.4 °F 46.4 °F 30.23 in Calm     86 % 0.00 in
23:00 50.7 °F 46.7 °F 30.23 in Calm     86 % 0.00 in
23:05 51.0 °F 47.0 °F 30.23 in Calm     86 % 0.00 in
23:10 51.3 °F 46.9 °F 30.23 in Calm     85 % 0.00 in
23:15 51.5 °F 46.8 °F 30.23 in Calm     84 % 0.00 in
23:20 51.4 °F 46.7 °F 30.23 in Calm     84 % 0.00 in
23:25 51.2 °F 46.5 °F 30.23 in Calm     84 % 0.00 in
23:30 51.5 °F 46.8 °F 30.23 in Calm     84 % 0.00 in
23:35 51.5 °F 46.2 °F 30.23 in Calm     82 % 0.00 in
23:40 51.0 °F 45.7 °F 30.23 in Calm     82 % 0.00 in
23:45 50.8 °F 45.8 °F 30.23 in Calm     83 % 0.00 in
23:50 50.8 °F 45.8 °F 30.23 in Calm     83 % 0.00 in
23:55 50.8 °F 46.1 °F 30.23 in Calm     84 % 0.00 in
Park Place, Exeter, Tulare County, California, USA
Compliments of Weather Underground - 2.75 mb